Time;durP1;ratioP1;P1;durP2;ratioP2;P2;SDS_P1;SDS_P2;PMS_P1;PMS_P2;Temp;Humidity;BMP_temperature;BMP_pressure;BME280_temperature;BME280_humidity;BME280_pressure;Samples;Min_cycle;Max_cycle;Signal;HPM_P1;HPM_P2
2021/12/26 00:02:06;;;;;;;5.10;3.00;;;-2.30;99.90;;;;;;5127296;27;20377;-68
2021/12/26 00:04:33;;;;;;;3.60;2.50;;;-2.20;99.90;;;;;;5111313;27;20059;-68
2021/12/26 00:06:59;;;;;;;10.15;2.80;;;-2.20;99.90;;;;;;5111851;27;20543;-68
2021/12/26 00:09:24;;;;;;;5.55;2.97;;;-2.20;99.90;;;;;;5111532;27;20054;-68
2021/12/26 00:11:50;;;;;;;6.88;2.97;;;-2.20;99.90;;;;;;5129874;27;20047;-68
2021/12/26 00:14:15;;;;;;;3.60;2.38;;;-2.30;99.90;;;;;;5128513;27;20046;-68
2021/12/26 00:16:42;;;;;;;4.72;2.22;;;-2.30;99.90;;;;;;5129506;27;20096;-68
2021/12/26 00:19:08;;;;;;;8.98;3.25;;;-2.30;99.90;;;;;;5127538;27;20050;-68
2021/12/26 00:21:34;;;;;;;5.55;2.72;;;-2.40;99.90;;;;;;5112048;27;20039;-68
2021/12/26 00:23:59;;;;;;;4.50;2.20;;;-2.40;99.90;;;;;;5130639;27;20058;-68
2021/12/26 00:26:26;;;;;;;8.43;2.33;;;-2.40;99.90;;;;;;5130435;27;20651;-68
2021/12/26 00:28:52;;;;;;;6.72;2.92;;;-2.50;99.90;;;;;;5127452;27;20082;-68
2021/12/26 00:31:18;;;;;;;5.40;3.20;;;-2.50;99.90;;;;;;5129681;27;20047;-68
2021/12/26 00:33:45;;;;;;;4.55;2.53;;;-2.50;99.90;;;;;;5129657;27;20046;-68
2021/12/26 00:36:11;;;;;;;4.47;2.30;;;-2.50;99.90;;;;;;5134968;27;20042;-68
2021/12/26 00:38:37;;;;;;;7.10;2.47;;;-2.50;99.90;;;;;;5130856;27;20062;-68
2021/12/26 00:41:03;;;;;;;4.82;2.17;;;-2.50;99.90;;;;;;5112009;27;20047;-68
2021/12/26 00:43:28;;;;;;;5.97;2.65;;;-2.50;99.90;;;;;;5130168;27;20039;-68
2021/12/26 00:45:54;;;;;;;5.30;2.95;;;-2.60;99.90;;;;;;5129530;27;20402;-68
2021/12/26 00:48:20;;;;;;;7.53;2.58;;;-2.60;99.90;;;;;;5130756;27;20066;-67
2021/12/26 00:50:46;;;;;;;8.98;3.33;;;-2.60;99.90;;;;;;5122526;27;20516;-68
2021/12/26 00:53:11;;;;;;;3.58;2.33;;;-2.60;99.90;;;;;;5128835;27;20054;-68
2021/12/26 00:55:38;;;;;;;4.78;2.30;;;-2.70;99.90;;;;;;5122198;27;20039;-68
2021/12/26 00:58:05;;;;;;;4.55;2.45;;;-2.60;99.90;;;;;;5113851;27;20047;-68
2021/12/26 01:00:35;;;;;;;4.85;2.65;;;-2.70;99.90;;;;;;5110099;27;20055;-68
2021/12/26 01:03:04;;;;;;;7.15;3.50;;;-2.70;99.90;;;;;;5140087;27;20371;-68
2021/12/26 01:05:31;;;;;;;6.60;2.30;;;-2.60;99.90;;;;;;5110732;27;20050;-68
2021/12/26 01:08:02;;;;;;;3.58;2.28;;;-2.70;99.90;;;;;;5127962;27;20055;-68
2021/12/26 01:10:32;;;;;;;4.32;2.65;;;-2.70;99.90;;;;;;5131524;27;20039;-68
2021/12/26 01:12:57;;;;;;;5.35;3.80;;;-2.70;99.90;;;;;;5124381;27;20047;-68
2021/12/26 01:15:24;;;;;;;4.22;2.67;;;-2.80;99.90;;;;;;5110878;27;20047;-68
2021/12/26 01:17:55;;;;;;;4.10;2.42;;;-2.70;99.90;;;;;;5147511;27;20038;-68
2021/12/26 01:20:43;;;;;;;4.82;2.83;;;-2.70;99.90;;;;;;5141544;27;20031;-68
2021/12/26 01:23:11;;;;;;;3.67;2.42;;;-2.70;99.90;;;;;;5109115;27;20035;-68
2021/12/26 01:25:37;;;;;;;4.68;2.35;;;-2.70;99.90;;;;;;5108705;27;20125;-68
2021/12/26 01:28:03;;;;;;;4.63;2.47;;;-2.60;99.90;;;;;;5122666;27;20046;-68
2021/12/26 01:30:28;;;;;;;7.22;2.88;;;-2.60;99.90;;;;;;5128532;27;20429;-68
2021/12/26 01:32:54;;;;;;;4.20;1.95;;;-2.70;99.90;;;;;;5126554;27;20055;-67
2021/12/26 01:35:19;;;;;;;4.68;2.25;;;-2.70;99.90;;;;;;5108975;27;20428;-68
2021/12/26 01:37:45;;;;;;;4.45;2.20;;;-2.70;99.90;;;;;;5111222;27;20520;-68
2021/12/26 01:40:11;;;;;;;5.00;1.70;;;-2.80;99.90;;;;;;5127000;27;20078;-68
2021/12/26 01:42:37;;;;;;;4.70;2.85;;;-2.80;99.90;;;;;;5123768;27;20054;-68
2021/12/26 01:45:03;;;;;;;6.90;2.17;;;-2.80;99.90;;;;;;5128380;27;20039;-68
2021/12/26 01:47:29;;;;;;;2.78;1.83;;;-2.70;99.90;;;;;;5128335;27;20490;-68
2021/12/26 01:49:54;;;;;;;3.40;2.08;;;-2.80;99.90;;;;;;5122288;27;20043;-68
2021/12/26 01:52:20;;;;;;;3.47;2.10;;;-2.80;99.90;;;;;;5102327;28;20071;-68
2021/12/26 01:54:48;;;;;;;2.88;1.50;;;-2.70;99.90;;;;;;5127409;27;20143;-68
2021/12/26 01:57:17;;;;;;;4.60;1.67;;;-2.70;99.90;;;;;;5121026;27;20482;-68
2021/12/26 01:59:45;;;;;;;4.72;2.30;;;-2.80;99.90;;;;;;5125175;27;20054;-68
2021/12/26 02:02:11;;;;;;;4.05;1.95;;;-2.80;99.90;;;;;;5126565;28;20039;-68
2021/12/26 02:04:39;;;;;;;4.68;2.83;;;-2.80;99.90;;;;;;5110783;28;20053;-68
2021/12/26 02:07:06;;;;;;;4.28;1.90;;;-2.90;99.90;;;;;;5128376;27;20038;-68
2021/12/26 02:09:31;;;;;;;5.30;1.70;;;-2.80;99.90;;;;;;5139394;27;20039;-68
2021/12/26 02:11:57;;;;;;;2.88;1.77;;;-2.90;99.90;;;;;;5128290;28;20050;-68
2021/12/26 02:14:23;;;;;;;3.83;1.83;;;-2.90;99.90;;;;;;5132411;27;20476;-68
2021/12/26 02:16:49;;;;;;;3.63;1.83;;;-2.90;99.90;;;;;;5114892;28;20039;-68
2021/12/26 02:19:14;;;;;;;5.60;2.08;;;-2.90;99.90;;;;;;5128603;28;20103;-68
2021/12/26 02:24:54;;;;;;;2.22;1.52;;;-2.80;99.90;;;;;;5139445;27;20393;-68
2021/12/26 02:27:32;;;;;;;1.92;1.50;;;-2.90;99.90;;;;;;5127659;28;20047;-68
2021/12/26 02:30:04;;;;;;;5.63;2.30;;;-2.80;99.90;;;;;;5120608;27;20471;-68
2021/12/26 02:32:30;;;;;;;7.13;1.75;;;-2.80;99.90;;;;;;5110336;28;20043;-68
2021/12/26 02:34:57;;;;;;;6.57;1.63;;;-2.80;99.90;;;;;;5108023;28;20051;-68
2021/12/26 02:37:22;;;;;;;3.60;1.92;;;-2.70;99.90;;;;;;5128176;27;20046;-68
2021/12/26 02:39:48;;;;;;;3.20;1.50;;;-2.60;99.90;;;;;;5130314;27;20031;-68
2021/12/26 02:42:18;;;;;;;1.80;1.40;;;-2.60;99.90;;;;;;5131917;27;20092;-67
2021/12/26 02:44:43;;;;;;;3.03;1.83;;;-2.60;99.90;;;;;;5133827;27;20042;-68
2021/12/26 02:47:09;;;;;;;4.28;1.80;;;-2.60;99.90;;;;;;5133247;27;20129;-68
2021/12/26 02:49:35;;;;;;;3.67;2.25;;;-2.60;99.90;;;;;;5125314;27;20057;-68
2021/12/26 02:52:00;;;;;;;2.95;1.75;;;-2.70;99.90;;;;;;5129572;27;20046;-68
2021/12/26 02:54:26;;;;;;;2.20;1.55;;;-2.70;99.90;;;;;;5121349;27;20434;-68
2021/12/26 02:56:52;;;;;;;5.05;1.92;;;-2.80;99.90;;;;;;5133599;27;20042;-68
2021/12/26 02:59:18;;;;;;;4.82;2.13;;;-2.70;99.90;;;;;;5108327;27;20047;-68
2021/12/26 03:01:43;;;;;;;2.97;1.75;;;-2.70;99.90;;;;;;5130899;27;20454;-68
2021/12/26 03:04:09;;;;;;;4.28;1.90;;;-2.60;99.90;;;;;;5131150;27;20035;-68
2021/12/26 03:09:20;;;;;;;5.05;2.05;;;-2.70;99.90;;;;;;5132124;27;20131;-68
2021/12/26 03:11:47;;;;;;;5.35;2.30;;;-2.70;99.90;;;;;;5133082;27;20639;-68
2021/12/26 03:14:12;;;;;;;4.28;1.75;;;-2.80;99.90;;;;;;5114073;27;20112;-67
2021/12/26 03:16:46;;;;;;;4.00;1.40;;;-2.70;99.90;;;;;;5144154;27;20046;-68
2021/12/26 03:19:12;;;;;;;3.58;1.98;;;-2.80;99.90;;;;;;5145506;27;20043;-68
2021/12/26 03:21:37;;;;;;;5.22;2.60;;;-2.80;99.90;;;;;;5112734;27;20039;-68
2021/12/26 03:24:03;;;;;;;5.00;1.83;;;-2.80;99.90;;;;;;5140568;27;20043;-68
2021/12/26 03:26:29;;;;;;;4.80;2.20;;;-2.80;99.90;;;;;;5130630;27;20062;-68
2021/12/26 03:28:54;;;;;;;3.13;1.73;;;-2.80;99.90;;;;;;5131093;27;20039;-68
2021/12/26 03:31:20;;;;;;;3.80;1.38;;;-2.90;99.90;;;;;;5130167;27;20200;-68
2021/12/26 03:33:46;;;;;;;6.80;2.00;;;-2.90;99.90;;;;;;5130966;27;20047;-68
2021/12/26 03:36:11;;;;;;;2.95;1.73;;;-2.90;99.90;;;;;;5123814;27;20039;-68
2021/12/26 03:38:37;;;;;;;2.88;1.77;;;-2.80;99.90;;;;;;5112576;27;20092;-68
2021/12/26 03:41:03;;;;;;;3.03;1.40;;;-2.80;99.90;;;;;;5130276;27;20180;-68
2021/12/26 03:43:28;;;;;;;3.85;1.70;;;-2.80;99.90;;;;;;5114973;27;20103;-68
2021/12/26 03:45:54;;;;;;;5.63;3.35;;;-2.90;99.90;;;;;;5126916;27;20043;-68
2021/12/26 03:48:22;;;;;;;2.20;1.55;;;-2.90;99.90;;;;;;5144994;27;20047;-68
2021/12/26 03:50:48;;;;;;;2.88;1.90;;;-2.80;99.90;;;;;;5121456;27;20047;-68
2021/12/26 03:53:14;;;;;;;7.07;1.92;;;-2.90;99.90;;;;;;5135990;27;20046;-68
2021/12/26 03:55:40;;;;;;;4.18;1.90;;;-3.00;99.90;;;;;;5133690;27;20030;-68
2021/12/26 03:58:06;;;;;;;4.35;2.40;;;-3.00;99.90;;;;;;5136871;27;20039;-68
2021/12/26 04:00:33;;;;;;;2.50;1.60;;;-3.10;99.90;;;;;;5130504;27;20516;-67
2021/12/26 04:02:58;;;;;;;4.32;1.73;;;-3.10;99.90;;;;;;5130178;27;20043;-68
2021/12/26 04:05:24;;;;;;;3.13;1.77;;;-3.10;99.90;;;;;;5122176;27;20140;-68
2021/12/26 04:07:50;;;;;;;3.53;1.80;;;-3.20;99.90;;;;;;5130730;27;20138;-68
2021/12/26 04:10:17;;;;;;;2.60;1.95;;;-3.10;99.90;;;;;;5129631;27;20043;-68
2021/12/26 04:12:47;;;;;;;3.17;1.85;;;-3.30;99.90;;;;;;5130307;27;20047;-68
2021/12/26 04:15:15;;;;;;;2.42;1.55;;;-3.30;99.90;;;;;;5112759;27;20047;-68
2021/12/26 04:17:41;;;;;;;3.40;1.65;;;-3.30;99.90;;;;;;5112564;27;20047;-68
2021/12/26 04:20:07;;;;;;;5.07;1.85;;;-3.30;99.90;;;;;;5130065;27;20057;-68
2021/12/26 04:22:33;;;;;;;3.45;1.85;;;-3.30;99.90;;;;;;5101878;27;20082;-68
2021/12/26 04:24:59;;;;;;;2.15;1.25;;;-3.20;99.90;;;;;;5126963;27;20093;-68
2021/12/26 04:27:25;;;;;;;6.63;2.10;;;-3.20;99.90;;;;;;5130561;27;20054;-68
2021/12/26 04:29:52;;;;;;;4.95;1.85;;;-3.30;99.90;;;;;;5128736;27;20058;-68
2021/12/26 04:32:18;;;;;;;3.30;2.33;;;-3.30;99.90;;;;;;5122106;27;20047;-68
2021/12/26 04:34:44;;;;;;;2.15;1.40;;;-3.20;99.90;;;;;;5149604;27;20042;-68
2021/12/26 04:37:09;;;;;;;2.25;1.55;;;-3.30;99.90;;;;;;5133388;27;20046;-68
2021/12/26 04:39:35;;;;;;;4.07;1.48;;;-3.30;99.90;;;;;;5129918;27;20043;-68
2021/12/26 04:42:01;;;;;;;4.00;1.90;;;-3.30;99.90;;;;;;5128794;27;20051;-68
2021/12/26 04:44:27;;;;;;;3.55;1.70;;;-3.30;99.90;;;;;;5126016;27;20124;-67
2021/12/26 04:46:53;;;;;;;2.97;1.65;;;-3.40;99.90;;;;;;5111357;27;20549;-68
2021/12/26 04:49:19;;;;;;;2.47;1.25;;;-3.40;99.90;;;;;;5128233;27;20081;-68
2021/12/26 04:51:45;;;;;;;6.97;2.67;;;-3.40;99.90;;;;;;5107688;27;20054;-68
2021/12/26 04:54:10;;;;;;;2.97;1.67;;;-3.40;99.90;;;;;;5119055;27;20481;-68
2021/12/26 04:56:36;;;;;;;2.78;1.30;;;-3.40;99.90;;;;;;5142299;27;20088;-68
2021/12/26 04:59:03;;;;;;;2.50;1.67;;;-3.30;99.90;;;;;;5127202;27;20031;-68
2021/12/26 05:01:29;;;;;;;3.53;1.55;;;-3.30;99.90;;;;;;5128504;27;20046;-68
2021/12/26 05:03:54;;;;;;;4.80;2.05;;;-3.30;99.90;;;;;;5127736;27;20051;-67
2021/12/26 05:06:20;;;;;;;3.88;1.63;;;-3.30;99.90;;;;;;5127887;27;20031;-68
2021/12/26 05:08:45;;;;;;;4.85;2.17;;;-3.30;99.90;;;;;;5126573;27;20073;-68
2021/12/26 05:11:11;;;;;;;3.00;1.40;;;-3.40;99.90;;;;;;5128302;27;20110;-68
2021/12/26 05:13:37;;;;;;;5.93;1.98;;;-3.40;99.90;;;;;;5129466;27;20050;-67
2021/12/26 05:16:02;;;;;;;2.00;1.45;;;-3.30;99.90;;;;;;5103971;27;20126;-68
2021/12/26 05:18:28;;;;;;;3.53;1.70;;;-3.40;99.90;;;;;;5135179;27;20531;-68
2021/12/26 05:20:56;;;;;;;3.42;1.80;;;-3.30;99.90;;;;;;5131710;27;20046;-68
2021/12/26 05:23:22;;;;;;;4.47;1.70;;;-3.30;99.90;;;;;;5127805;27;20039;-68
2021/12/26 05:25:47;;;;;;;3.08;1.90;;;-3.30;99.90;;;;;;5129315;27;20047;-68
2021/12/26 05:28:13;;;;;;;3.53;1.95;;;-3.40;99.90;;;;;;5116361;27;20062;-68
2021/12/26 05:30:39;;;;;;;7.15;3.88;;;-3.50;99.90;;;;;;5110772;27;20049;-67
2021/12/26 05:33:04;;;;;;;4.03;1.60;;;-3.50;99.90;;;;;;5122972;27;20085;-68
2021/12/26 05:35:31;;;;;;;4.40;1.83;;;-3.40;99.90;;;;;;5145996;27;20628;-68
2021/12/26 05:37:57;;;;;;;3.60;2.10;;;-3.40;99.90;;;;;;5127940;27;20047;-68
2021/12/26 05:40:24;;;;;;;2.65;1.67;;;-3.50;99.90;;;;;;5127286;27;20046;-68
2021/12/26 05:42:49;;;;;;;2.75;1.55;;;-3.40;99.90;;;;;;5108066;27;20066;-68
2021/12/26 05:45:16;;;;;;;4.55;1.75;;;-3.30;99.90;;;;;;5128243;27;20970;-68
2021/12/26 05:47:42;;;;;;;3.42;1.80;;;-3.30;99.90;;;;;;5129066;27;20043;-68
2021/12/26 05:50:10;;;;;;;3.47;1.80;;;-3.30;99.90;;;;;;5128854;27;20371;-67
2021/12/26 05:52:36;;;;;;;2.67;1.42;;;-3.20;99.90;;;;;;5106729;27;20074;-68
2021/12/26 05:55:03;;;;;;;2.70;1.60;;;-3.20;99.90;;;;;;5128508;27;20047;-68
2021/12/26 05:57:29;;;;;;;3.88;1.63;;;-3.20;99.90;;;;;;5128000;27;20043;-68
2021/12/26 05:59:54;;;;;;;5.95;1.95;;;-3.20;99.90;;;;;;5120152;27;20052;-68
2021/12/26 06:02:20;;;;;;;2.83;1.80;;;-3.20;99.90;;;;;;5109313;27;20045;-68
2021/12/26 06:04:45;;;;;;;2.85;1.77;;;-3.20;99.90;;;;;;5130434;27;20039;-68
2021/12/26 06:07:11;;;;;;;4.28;2.42;;;-3.20;99.90;;;;;;5128583;28;20372;-67
2021/12/26 06:09:36;;;;;;;4.03;2.28;;;-3.20;99.90;;;;;;5129948;28;20558;-68
2021/12/26 06:12:02;;;;;;;7.20;2.03;;;-3.10;99.90;;;;;;5124565;27;20062;-68
2021/12/26 06:14:28;;;;;;;3.63;1.75;;;-3.20;99.90;;;;;;5112318;27;20046;-68
2021/12/26 06:16:53;;;;;;;7.28;1.83;;;-3.20;99.90;;;;;;5131993;27;20055;-68
2021/12/26 06:19:19;;;;;;;6.57;1.90;;;-3.20;99.90;;;;;;5124680;27;20486;-68
2021/12/26 06:21:44;;;;;;;4.22;2.50;;;-3.10;99.90;;;;;;5130252;27;20038;-68
2021/12/26 06:24:10;;;;;;;3.00;1.42;;;-3.10;99.90;;;;;;5132915;27;20050;-68
2021/12/26 06:26:36;;;;;;;3.20;1.75;;;-3.10;99.90;;;;;;5146485;27;20596;-68
2021/12/26 06:29:02;;;;;;;3.17;1.98;;;-3.10;99.90;;;;;;5132711;27;20557;-68
2021/12/26 06:31:28;;;;;;;2.05;1.63;;;-3.00;99.90;;;;;;5138196;27;20058;-68
2021/12/26 06:33:53;;;;;;;2.78;1.55;;;-3.10;99.90;;;;;;5141308;27;20050;-68
2021/12/26 06:36:19;;;;;;;3.28;1.80;;;-3.00;99.90;;;;;;5132248;27;20406;-67
2021/12/26 06:38:45;;;;;;;4.13;2.53;;;-3.00;99.90;;;;;;5123300;27;20043;-67
2021/12/26 06:41:15;;;;;;;2.95;2.15;;;-3.00;99.90;;;;;;5129084;27;20055;-67
2021/12/26 06:43:42;;;;;;;3.88;1.88;;;-3.00;99.90;;;;;;5131678;27;20051;-68
2021/12/26 06:46:08;;;;;;;6.35;2.22;;;-3.00;99.90;;;;;;5128749;27;20125;-67
2021/12/26 06:48:34;;;;;;;3.03;1.65;;;-3.10;99.90;;;;;;5129567;27;20059;-68
2021/12/26 06:51:00;;;;;;;5.15;1.95;;;-2.90;99.90;;;;;;5112027;27;20135;-68
2021/12/26 06:53:26;;;;;;;3.88;1.35;;;-3.00;99.90;;;;;;5132122;27;20465;-67
2021/12/26 06:55:51;;;;;;;5.63;2.58;;;-2.90;99.90;;;;;;5111427;27;20130;-68
2021/12/26 06:58:17;;;;;;;2.97;2.03;;;-2.90;99.90;;;;;;5126835;27;20050;-67
2021/12/26 07:00:43;;;;;;;5.00;2.70;;;-2.80;99.90;;;;;;5139029;27;20150;-68
2021/12/26 07:03:09;;;;;;;2.65;1.98;;;-2.90;99.90;;;;;;5131212;27;20058;-67
2021/12/26 07:05:35;;;;;;;2.75;1.73;;;-3.00;99.90;;;;;;5131122;27;20571;-68
2021/12/26 07:08:01;;;;;;;3.58;1.70;;;-2.80;99.90;;;;;;5112108;27;20071;-67
2021/12/26 07:10:27;;;;;;;3.25;1.73;;;-2.90;99.90;;;;;;5141356;27;20131;-67
2021/12/26 07:12:53;;;;;;;3.42;2.03;;;-2.90;99.90;;;;;;5131647;27;20089;-67
2021/12/26 07:15:19;;;;;;;3.70;1.55;;;-3.00;99.90;;;;;;5131447;27;20092;-68
2021/12/26 07:17:44;;;;;;;4.53;2.40;;;-2.90;99.90;;;;;;5124189;27;20039;-67
2021/12/26 07:20:12;;;;;;;2.75;1.95;;;-3.00;99.90;;;;;;5131423;27;20043;-67
2021/12/26 07:22:38;;;;;;;2.83;1.98;;;-3.00;99.90;;;;;;5122873;27;20134;-68
2021/12/26 07:25:05;;;;;;;4.07;2.05;;;-3.10;99.90;;;;;;5132294;27;20034;-68
2021/12/26 07:27:31;;;;;;;2.78;2.15;;;-3.10;99.90;;;;;;5132017;27;20047;-67
2021/12/26 07:29:58;;;;;;;4.55;2.45;;;-3.10;99.90;;;;;;5128532;27;20035;-67
2021/12/26 07:32:24;;;;;;;2.45;1.80;;;-3.20;99.90;;;;;;5111461;27;20055;-67
2021/12/26 07:34:50;;;;;;;4.70;2.38;;;-3.20;99.90;;;;;;5111383;27;20478;-67
2021/12/26 07:37:17;;;;;;;3.88;2.50;;;-3.20;99.90;;;;;;5131396;27;20042;-67
2021/12/26 07:39:42;;;;;;;4.70;2.63;;;-3.20;99.90;;;;;;5130919;27;20048;-68
2021/12/26 07:42:09;;;;;;;3.72;1.95;;;-3.20;99.90;;;;;;5129844;27;20049;-68
2021/12/26 07:44:34;;;;;;;7.63;2.50;;;-3.30;99.90;;;;;;5116915;27;20042;-68
2021/12/26 07:47:00;;;;;;;5.18;3.20;;;-3.30;99.90;;;;;;5139673;27;20051;-68
2021/12/26 07:49:27;;;;;;;3.08;1.88;;;-3.40;99.90;;;;;;5109144;27;20093;-68
2021/12/26 07:51:53;;;;;;;6.85;2.60;;;-3.30;99.90;;;;;;5133733;27;20547;-68
2021/12/26 07:54:22;;;;;;;3.47;2.30;;;-3.30;99.90;;;;;;5127716;27;20039;-67
2021/12/26 07:56:48;;;;;;;5.00;2.15;;;-3.30;99.90;;;;;;5130553;27;20048;-67
2021/12/26 07:59:14;;;;;;;5.38;2.33;;;-3.30;99.90;;;;;;5112920;27;20461;-67
2021/12/26 08:01:40;;;;;;;5.20;2.08;;;-3.30;99.90;;;;;;5132347;27;20118;-67
2021/12/26 08:04:11;;;;;;;3.80;2.20;;;-3.20;99.90;;;;;;5128657;27;20050;-67
2021/12/26 08:06:37;;;;;;;4.22;2.63;;;-3.20;99.90;;;;;;5123375;27;20390;-67
2021/12/26 08:09:04;;;;;;;4.50;2.22;;;-3.20;99.90;;;;;;5129654;27;20043;-67
2021/12/26 08:11:30;;;;;;;3.22;2.35;;;-3.20;99.90;;;;;;5110427;27;20031;-67
2021/12/26 08:13:55;;;;;;;4.05;2.00;;;-3.20;99.90;;;;;;5127061;27;20051;-67
2021/12/26 08:16:21;;;;;;;5.03;2.90;;;-3.20;99.90;;;;;;5125437;27;20402;-67
2021/12/26 08:18:47;;;;;;;6.30;2.72;;;-3.20;99.90;;;;;;5128616;27;20066;-67
2021/12/26 08:21:12;;;;;;;7.13;3.10;;;-3.20;99.90;;;;;;5106569;27;20092;-67
2021/12/26 08:23:38;;;;;;;4.95;2.75;;;-3.10;99.90;;;;;;5129843;27;20475;-68
2021/12/26 08:26:04;;;;;;;5.75;2.55;;;-3.10;99.90;;;;;;5125193;27;20043;-68
2021/12/26 08:28:30;;;;;;;4.78;2.45;;;-3.20;99.90;;;;;;5120478;27;20044;-68
2021/12/26 08:30:56;;;;;;;7.85;3.10;;;-3.10;99.90;;;;;;5123966;27;20096;-68
2021/12/26 08:33:22;;;;;;;5.20;3.00;;;-3.10;99.90;;;;;;5111632;27;20051;-68
2021/12/26 08:35:49;;;;;;;8.15;4.05;;;-3.20;99.90;;;;;;5109459;27;20122;-68
2021/12/26 08:38:19;;;;;;;6.05;2.97;;;-3.10;99.90;;;;;;5129304;27;20043;-67
2021/12/26 08:40:45;;;;;;;9.60;3.85;;;-3.00;99.90;;;;;;5129710;27;20503;-67
2021/12/26 08:43:10;;;;;;;5.90;3.13;;;-3.00;99.90;;;;;;5112750;27;20058;-67
2021/12/26 08:45:37;;;;;;;6.60;3.45;;;-3.00;99.90;;;;;;5102116;27;20460;-67
2021/12/26 08:48:03;;;;;;;7.18;2.90;;;-3.00;99.90;;;;;;5124514;27;20035;-65
2021/12/26 08:50:29;;;;;;;5.10;2.85;;;-3.10;99.90;;;;;;5120751;27;20521;-66
2021/12/26 08:52:56;;;;;;;6.35;2.63;;;-3.10;99.90;;;;;;5123549;27;20495;-66
2021/12/26 08:55:23;;;;;;;5.03;2.75;;;-3.00;99.90;;;;;;5117765;27;20039;-65
2021/12/26 08:57:53;;;;;;;5.28;2.35;;;-2.90;99.90;;;;;;5120128;27;20445;-67
2021/12/26 09:00:20;;;;;;;5.43;3.03;;;-2.80;99.90;;;;;;5112187;27;20090;-67
2021/12/26 09:02:45;;;;;;;4.63;2.65;;;-2.80;99.90;;;;;;5111052;27;20043;-68
2021/12/26 09:05:12;;;;;;;4.88;2.55;;;-2.80;99.90;;;;;;5127736;27;20103;-67
2021/12/26 09:07:38;;;;;;;3.42;2.38;;;-2.70;99.90;;;;;;5122687;27;20067;-67
2021/12/26 09:10:06;;;;;;;5.47;2.20;;;-2.70;99.90;;;;;;5136629;27;20227;-67
2021/12/26 09:12:31;;;;;;;4.90;3.30;;;-2.60;99.90;;;;;;5123488;27;20039;-69
2021/12/26 09:14:57;;;;;;;4.25;2.30;;;-2.60;99.90;;;;;;5140122;27;20049;-68
2021/12/26 09:17:23;;;;;;;4.72;3.40;;;-2.60;99.90;;;;;;5128844;27;20043;-68
2021/12/26 09:19:48;;;;;;;8.00;2.80;;;-2.60;99.90;;;;;;5121292;27;20043;-68
2021/12/26 09:22:15;;;;;;;4.20;2.67;;;-2.50;99.90;;;;;;5150555;27;20042;-68
2021/12/26 09:24:42;;;;;;;4.60;2.58;;;-2.50;99.90;;;;;;5143013;27;20502;-68
2021/12/26 09:27:08;;;;;;;6.38;2.80;;;-2.40;99.90;;;;;;5120905;27;20044;-67
2021/12/26 09:29:33;;;;;;;6.70;2.60;;;-2.50;99.90;;;;;;5114449;27;20546;-68
2021/12/26 09:32:02;;;;;;;8.43;3.70;;;-2.40;99.90;;;;;;5128342;27;20049;-68
2021/12/26 09:34:29;;;;;;;5.20;2.53;;;-2.30;99.90;;;;;;5132112;27;20057;-69
2021/12/26 09:36:55;;;;;;;4.55;2.83;;;-2.30;99.90;;;;;;5150327;27;20067;-68
2021/12/26 09:39:22;;;;;;;9.35;2.63;;;-2.30;99.90;;;;;;5150234;27;20065;-67
2021/12/26 09:41:51;;;;;;;7.78;3.28;;;-2.20;99.90;;;;;;5139252;27;20047;-67
2021/12/26 09:44:18;;;;;;;3.55;2.35;;;-2.20;99.90;;;;;;5128965;27;20039;-68
2021/12/26 09:46:44;;;;;;;6.32;2.83;;;-2.10;99.90;;;;;;5120113;27;20035;-67
2021/12/26 09:49:10;;;;;;;6.35;3.17;;;-2.10;99.90;;;;;;5110436;27;20599;-68
2021/12/26 09:51:35;;;;;;;5.00;2.58;;;-2.00;99.90;;;;;;5120267;27;20506;-68
2021/12/26 09:54:02;;;;;;;6.25;2.80;;;-2.00;99.90;;;;;;5118185;27;20141;-68
2021/12/26 09:56:28;;;;;;;4.68;3.15;;;-1.90;99.90;;;;;;5132847;27;20047;-68
2021/12/26 09:58:57;;;;;;;3.40;2.72;;;-1.90;99.90;;;;;;5130297;27;20049;-68
2021/12/26 10:01:45;;;;;;;5.53;2.80;;;-1.90;99.90;;;;;;5127236;27;20603;-68
2021/12/26 10:04:28;;;;;;;4.60;2.72;;;-1.70;99.90;;;;;;5150454;27;20130;-68
2021/12/26 10:07:00;;;;;;;6.28;2.80;;;-1.70;99.90;;;;;;5129006;28;20160;-68
2021/12/26 10:09:27;;;;;;;4.38;2.63;;;-1.80;99.90;;;;;;5120599;27;20098;-68
2021/12/26 10:11:55;;;;;;;10.43;3.78;;;-1.60;99.90;;;;;;5129464;27;20074;-68
2021/12/26 10:14:24;;;;;;;6.25;2.30;;;-1.50;99.90;;;;;;5125362;28;20070;-68
2021/12/26 10:16:58;;;;;;;5.60;3.20;;;-1.40;99.90;;;;;;5125560;27;20045;-68
2021/12/26 10:19:24;;;;;;;4.68;2.78;;;-1.30;99.90;;;;;;5127324;27;20141;-68
2021/12/26 10:21:55;;;;;;;4.32;2.53;;;-1.20;99.90;;;;;;5128999;28;20114;-68
2021/12/26 10:24:24;;;;;;;4.95;3.20;;;-1.20;99.90;;;;;;5123273;27;20137;-67
2021/12/26 10:26:52;;;;;;;3.40;2.28;;;-1.20;99.90;;;;;;5149632;27;20097;-68
2021/12/26 10:29:25;;;;;;;5.90;2.40;;;-1.20;99.90;;;;;;5128959;27;20055;-68
2021/12/26 10:32:07;;;;;;;3.85;2.85;;;-1.20;99.90;;;;;;5149625;27;20055;-68
2021/12/26 10:34:37;;;;;;;6.60;2.65;;;-1.20;99.90;;;;;;5128037;27;20509;-68
2021/12/26 10:37:06;;;;;;;6.85;3.17;;;-1.10;99.90;;;;;;5110800;27;20054;-68
2021/12/26 10:39:41;;;;;;;5.80;3.35;;;-1.00;99.90;;;;;;5128927;27;20072;-68
2021/12/26 10:42:10;;;;;;;4.40;2.60;;;-1.00;99.90;;;;;;5124493;28;20448;-68
2021/12/26 10:44:45;;;;;;;3.53;2.60;;;-0.90;99.90;;;;;;5137549;27;20482;-68
2021/12/26 10:47:14;;;;;;;5.40;3.20;;;-0.80;99.90;;;;;;5131136;27;20087;-68
2021/12/26 10:49:44;;;;;;;2.80;2.42;;;-0.80;99.90;;;;;;5125099;27;20050;-68
2021/12/26 10:52:12;;;;;;;4.53;2.67;;;-0.80;99.90;;;;;;5113035;28;20475;-68
2021/12/26 10:54:41;;;;;;;4.25;3.08;;;-0.80;99.90;;;;;;5109616;28;20039;-67
2021/12/26 10:57:28;;;;;;;3.88;2.85;;;-0.70;99.90;;;;;;5125942;28;20047;-67
2021/12/26 11:00:14;;;;;;;5.40;3.45;;;-0.70;99.90;;;;;;5135501;27;20070;-67
2021/12/26 11:02:51;;;;;;;7.20;3.83;;;-0.70;99.90;;;;;;5116878;27;20081;-67
2021/12/26 11:05:21;;;;;;;4.18;2.70;;;-0.60;99.90;;;;;;5113080;27;20611;-66
2021/12/26 11:07:55;;;;;;;7.97;3.22;;;-0.50;99.90;;;;;;5135625;27;20039;-66
2021/12/26 11:10:25;;;;;;;4.60;3.38;;;-0.50;99.90;;;;;;5129878;27;20446;-66
2021/12/26 11:12:56;;;;;;;3.13;2.72;;;-0.50;99.90;;;;;;5101959;27;20039;-66
2021/12/26 11:15:24;;;;;;;8.10;2.88;;;-0.40;99.90;;;;;;5134128;27;20409;-69
2021/12/26 11:18:01;;;;;;;8.95;3.72;;;-0.40;99.90;;;;;;5122641;27;20082;-67
2021/12/26 11:20:38;;;;;;;5.22;2.90;;;-0.50;99.90;;;;;;5132162;27;20051;-67
2021/12/26 11:23:10;;;;;;;4.97;3.08;;;-0.50;99.90;;;;;;5110305;27;20194;-67
2021/12/26 11:25:40;;;;;;;11.18;3.88;;;-0.50;99.90;;;;;;5135488;27;20047;-68
2021/12/26 11:28:05;;;;;;;7.90;3.30;;;-0.30;99.90;;;;;;5122020;27;20071;-67
2021/12/26 11:30:31;;;;;;;4.80;3.25;;;-0.30;99.90;;;;;;5133148;27;20085;-67
2021/12/26 11:32:59;;;;;;;6.95;3.72;;;-0.30;99.90;;;;;;5152393;27;20057;-67
2021/12/26 11:35:30;;;;;;;7.25;4.68;;;-0.20;99.90;;;;;;5134452;27;20065;-67
2021/12/26 11:37:57;;;;;;;4.82;3.55;;;-0.30;99.90;;;;;;5132633;27;20039;-67
2021/12/26 11:40:23;;;;;;;7.35;3.75;;;-0.20;99.90;;;;;;5118965;27;20051;-67
2021/12/26 11:42:57;;;;;;;4.85;3.42;;;-0.10;99.90;;;;;;5130548;27;20046;-67
2021/12/26 11:45:45;;;;;;;4.30;3.40;;;0.10;99.90;;;;;;5131082;27;20051;-67
2021/12/26 11:48:23;;;;;;;4.82;3.08;;;0.30;99.90;;;;;;5148103;27;20455;-67
2021/12/26 11:51:11;;;;;;;6.80;3.47;;;0.40;99.90;;;;;;5118648;27;20043;-68
2021/12/26 11:54:10;;;;;;;5.55;3.38;;;0.50;99.90;;;;;;5110142;27;20047;-68
2021/12/26 11:57:05;;;;;;;5.00;3.55;;;0.70;99.90;;;;;;5121402;27;20057;-69
2021/12/26 11:59:57;;;;;;;7.78;3.70;;;0.80;99.90;;;;;;5129623;27;20054;-70
2021/12/26 12:02:49;;;;;;;5.75;3.03;;;1.00;99.90;;;;;;5137419;27;20476;-69
2021/12/26 12:05:36;;;;;;;4.85;3.17;;;1.20;99.90;;;;;;5127555;27;20127;-69
2021/12/26 12:08:08;;;;;;;5.00;3.72;;;1.30;99.90;;;;;;5133137;27;20093;-69
2021/12/26 12:10:37;;;;;;;5.90;3.42;;;1.50;99.90;;;;;;5149270;27;20050;-69
2021/12/26 12:13:05;;;;;;;4.57;3.50;;;1.70;99.90;;;;;;5129053;27;20051;-69
2021/12/26 12:15:48;;;;;;;6.38;3.97;;;1.90;99.90;;;;;;5152067;27;20055;-69
2021/12/26 12:18:27;;;;;;;4.65;3.28;;;2.10;99.90;;;;;;5114923;27;20050;-69
2021/12/26 12:21:17;;;;;;;8.75;5.47;;;2.00;99.90;;;;;;5136688;27;20096;-69
2021/12/26 12:24:04;;;;;;;7.70;4.28;;;2.00;99.90;;;;;;5131047;27;20039;-69
2021/12/26 12:26:37;;;;;;;6.13;4.47;;;2.20;99.90;;;;;;5142753;27;20478;-69
2021/12/26 12:29:03;;;;;;;7.07;5.40;;;2.20;99.90;;;;;;5122870;27;20131;-68
2021/12/26 12:31:28;;;;;;;10.88;4.45;;;2.20;99.90;;;;;;5126377;27;20479;-69
2021/12/26 12:34:09;;;;;;;6.05;3.53;;;2.30;99.90;;;;;;5130139;27;20051;-69
2021/12/26 12:36:39;;;;;;;6.18;3.35;;;2.30;99.90;;;;;;5132793;27;20046;-69
2021/12/26 12:39:23;;;;;;;5.20;3.70;;;2.30;99.90;;;;;;5135644;27;20595;-69
2021/12/26 12:41:53;;;;;;;4.53;3.50;;;2.20;99.90;;;;;;5142994;27;20045;-69
2021/12/26 12:44:32;;;;;;;7.50;3.65;;;2.30;99.90;;;;;;5151500;27;20043;-69
2021/12/26 12:47:06;;;;;;;8.27;4.55;;;2.30;99.90;;;;;;5114787;27;20058;-69
2021/12/26 12:49:46;;;;;;;7.35;3.90;;;2.40;99.90;;;;;;5124505;27;20118;-69
2021/12/26 12:53:03;;;;;;;7.93;4.28;;;2.60;99.90;;;;;;5123639;27;20043;-69
2021/12/26 12:55:49;;;;;;;6.22;3.42;;;2.60;99.90;;;;;;5085311;27;20050;-69
2021/12/26 12:58:26;;;;;;;5.32;3.97;;;2.60;99.90;;;;;;5131073;27;20055;-69
2021/12/26 13:00:52;;;;;;;6.25;3.17;;;2.70;99.90;;;;;;5130822;27;20414;-69